createdAt,value
2018-04-06T00:00:17.123Z,16.33
2018-04-06T00:02:46.183Z,14.37
2018-04-06T00:05:14.493Z,15.48
2018-04-06T00:07:43.648Z,14.47
2018-04-06T00:10:11.914Z,15.17
2018-04-06T00:12:40.255Z,12.63
2018-04-06T00:15:08.599Z,10.57
2018-04-06T00:17:38.129Z,13.85
2018-04-06T00:20:08.332Z,13.93
2018-04-06T00:22:37.395Z,11.50
2018-04-06T00:25:05.674Z,8.90
2018-04-06T00:27:34.229Z,12.00
2018-04-06T00:30:02.685Z,16.37
2018-04-06T00:32:31.039Z,12.98
2018-04-06T00:35:00.155Z,13.48
2018-04-06T00:37:29.323Z,12.87
2018-04-06T00:39:57.658Z,13.57
2018-04-06T00:42:25.947Z,15.00
2018-04-06T00:44:54.283Z,15.95
2018-04-06T00:47:23.450Z,17.40
2018-04-06T00:49:51.788Z,12.80
2018-04-06T00:52:21.436Z,16.50
2018-04-06T00:54:49.894Z,12.80
2018-04-06T00:57:18.304Z,11.40
2018-04-06T00:59:46.608Z,12.13
2018-04-06T01:02:14.889Z,14.07
2018-04-06T01:04:43.207Z,13.88
2018-04-06T01:07:11.512Z,14.70
2018-04-06T01:09:40.980Z,13.27
2018-04-06T01:12:09.334Z,16.87
2018-04-06T01:14:37.818Z,14.03
2018-04-06T01:17:06.208Z,15.93
2018-04-06T01:19:34.534Z,14.67
2018-04-06T01:22:04.713Z,13.33
2018-04-06T01:24:32.996Z,6.17
2018-04-06T01:27:01.292Z,15.98
2018-04-06T01:29:29.936Z,9.40
2018-04-06T01:31:58.204Z,9.43
2018-04-06T01:34:26.607Z,12.43
2018-04-06T01:36:55.021Z,8.87
2018-04-06T01:39:24.187Z,11.88
2018-04-06T01:41:52.448Z,7.97
2018-04-06T01:44:20.868Z,11.47
2018-04-06T01:46:50.083Z,13.28
2018-04-06T01:49:19.303Z,14.90
2018-04-06T01:51:47.624Z,9.47
2018-04-06T01:54:15.914Z,11.07
2018-04-06T01:56:44.245Z,13.53
2018-04-06T01:59:12.689Z,17.63
2018-04-06T02:01:41.822Z,12.93
2018-04-06T02:04:10.365Z,10.57
2018-04-06T02:06:39.815Z,13.13
2018-04-06T02:09:08.275Z,11.50
2018-04-06T02:11:37.823Z,9.35
2018-04-06T02:14:06.395Z,11.07
2018-04-06T02:16:34.752Z,11.57
2018-04-06T02:19:03.103Z,14.90
2018-04-06T02:21:32.156Z,9.93
2018-04-06T02:24:00.580Z,9.93
2018-04-06T02:26:28.864Z,8.27
2018-04-06T02:28:57.171Z,10.03
2018-04-06T02:31:25.436Z,7.20
2018-04-06T02:33:53.820Z,10.27
2018-04-06T02:36:22.325Z,10.10
2018-04-06T02:38:50.917Z,8.07
2018-04-06T02:41:19.585Z,10.87
2018-04-06T02:43:47.950Z,11.40
2018-04-06T02:46:16.299Z,12.80
2018-04-06T02:48:44.779Z,10.00
2018-04-06T02:51:13.066Z,13.30
2018-04-06T02:53:42.325Z,8.80
2018-04-06T02:56:12.694Z,10.43
2018-04-06T02:58:41.074Z,10.02
2018-04-06T03:01:09.326Z,12.97
2018-04-06T03:03:37.614Z,9.50
2018-04-06T03:06:05.930Z,11.80
2018-04-06T03:08:34.291Z,9.37
2018-04-06T03:11:02.739Z,14.77
2018-04-06T03:13:31.181Z,12.88
2018-04-06T03:15:59.562Z,10.47
2018-04-06T03:18:27.907Z,14.93
2018-04-06T03:20:56.216Z,11.07
2018-04-06T03:23:24.735Z,9.70
2018-04-06T03:25:53.260Z,13.75
2018-04-06T03:28:21.691Z,14.23
2018-04-06T03:33:33.990Z,11.43
2018-04-06T03:36:02.471Z,10.00
2018-04-06T03:38:30.809Z,10.50
2018-04-06T03:40:59.509Z,12.27
2018-04-06T03:43:27.794Z,9.75
2018-04-06T03:45:56.106Z,9.90
2018-04-06T03:48:25.272Z,12.47
2018-04-06T03:50:53.542Z,10.63
2018-04-06T03:53:22.671Z,10.23
2018-04-06T03:55:51.826Z,11.27
2018-04-06T03:58:20.337Z,9.85
2018-04-06T04:00:49.421Z,19.70
2018-04-06T04:03:17.724Z,21.70
2018-04-06T04:05:45.978Z,17.77
2018-04-06T04:08:14.376Z,14.03
2018-04-06T04:10:44.187Z,21.35
2018-04-06T04:13:14.508Z,18.37
2018-04-06T04:15:43.672Z,13.60
2018-04-06T04:18:12.038Z,13.80
2018-04-06T04:20:40.672Z,16.17
2018-04-06T04:23:09.032Z,11.30
2018-04-06T04:25:38.182Z,20.88
2018-04-06T04:28:06.696Z,17.33
2018-04-06T04:30:35.040Z,15.53
2018-04-06T04:33:03.516Z,16.63
2018-04-06T04:35:31.829Z,18.10
2018-04-06T04:38:00.240Z,16.77
2018-04-06T04:40:29.288Z,18.90
2018-04-06T04:42:57.644Z,34.77
2018-04-06T04:45:26.017Z,72.87
2018-04-06T04:47:54.342Z,35.22
2018-04-06T04:50:22.618Z,20.83
2018-04-06T04:52:51.066Z,27.77
2018-04-06T04:55:20.130Z,20.20
2018-04-06T04:57:48.660Z,22.47
2018-04-06T05:00:16.949Z,29.60
2018-04-06T05:02:45.270Z,14.83
2018-04-06T05:05:13.789Z,18.73
2018-04-06T05:07:42.125Z,22.53
2018-04-06T05:10:10.584Z,17.77
2018-04-06T05:12:39.669Z,15.13
2018-04-06T05:15:14.139Z,18.85
2018-04-06T05:17:42.570Z,19.43
2018-04-06T05:20:10.880Z,15.33
2018-04-06T05:22:39.235Z,17.42
2018-04-06T05:25:08.386Z,23.67
2018-04-06T05:27:36.866Z,17.80
2018-04-06T05:30:05.454Z,17.97
2018-04-06T05:32:35.871Z,19.50
2018-04-06T05:35:04.573Z,14.83
2018-04-06T05:37:33.020Z,16.08
2018-04-06T05:40:01.422Z,16.07
2018-04-06T05:42:29.790Z,62.80
2018-04-06T05:44:58.310Z,22.37
2018-04-06T05:47:26.609Z,17.83
2018-04-06T05:49:55.678Z,12.35
2018-04-06T05:52:24.077Z,16.63
2018-04-06T05:54:53.155Z,15.50
2018-04-06T05:57:22.274Z,10.77
2018-04-06T05:59:51.436Z,12.87
2018-04-06T06:02:20.033Z,15.77
2018-04-06T06:04:48.310Z,10.00
2018-04-06T06:07:16.604Z,17.10
2018-04-06T06:09:45.616Z,8.90
2018-04-06T06:12:13.984Z,8.57
2018-04-06T06:14:42.595Z,14.77
2018-04-06T06:17:11.942Z,18.37
2018-04-06T06:19:41.020Z,11.23
2018-04-06T06:22:09.776Z,13.60
2018-04-06T06:24:38.099Z,23.30
2018-04-06T06:27:06.415Z,13.37
2018-04-06T06:29:35.155Z,17.80
2018-04-06T06:32:03.570Z,22.37
2018-04-06T06:34:32.687Z,13.73
2018-04-06T06:37:02.124Z,16.55
2018-04-06T06:39:33.166Z,12.97
2018-04-06T06:42:01.462Z,15.33
2018-04-06T06:44:30.672Z,16.27
2018-04-06T06:46:59.760Z,14.73
2018-04-06T06:49:29.022Z,21.53
2018-04-06T06:51:57.776Z,18.77
2018-04-06T06:54:26.212Z,18.60
2018-04-06T06:56:55.594Z,16.33
2018-04-06T06:59:24.111Z,22.83
2018-04-06T07:01:53.416Z,11.77
2018-04-06T07:04:24.325Z,13.20
2018-04-06T07:06:52.710Z,10.97
2018-04-06T07:09:21.052Z,12.52
2018-04-06T07:11:49.791Z,13.23
2018-04-06T07:14:19.461Z,14.63
2018-04-06T07:16:48.038Z,14.07
2018-04-06T07:19:16.336Z,18.50
2018-04-06T07:21:45.517Z,18.12
2018-04-06T07:24:13.966Z,23.13
2018-04-06T07:26:42.544Z,15.60
2018-04-06T07:29:10.912Z,12.10
2018-04-06T07:31:39.195Z,14.10
2018-04-06T07:34:07.706Z,13.53
2018-04-06T07:36:36.450Z,14.83
2018-04-06T07:39:07.666Z,18.15
2018-04-06T07:41:35.971Z,15.80
2018-04-06T07:44:04.279Z,18.13
2018-04-06T07:46:32.584Z,11.37
2018-04-06T07:49:00.880Z,14.33
2018-04-06T07:51:29.942Z,11.30
2018-04-06T07:53:58.261Z,10.23
2018-04-06T07:56:27.432Z,10.97
2018-04-06T07:58:57.267Z,16.27
2018-04-06T08:01:25.745Z,12.53
2018-04-06T08:03:54.947Z,13.95
2018-04-06T08:06:24.099Z,16.10
2018-04-06T08:08:52.383Z,12.47
2018-04-06T08:11:20.770Z,11.00
2018-04-06T08:13:49.122Z,15.52
2018-04-06T08:16:17.482Z,14.95
2018-04-06T08:18:46.307Z,11.97
2018-04-06T08:21:14.650Z,8.73
2018-04-06T08:23:42.961Z,13.20
2018-04-06T08:26:11.266Z,8.27
2018-04-06T08:28:39.540Z,10.47
2018-04-06T08:31:08.067Z,12.70
2018-04-06T08:33:36.693Z,10.03
2018-04-06T08:36:05.089Z,9.52
2018-04-06T08:38:33.465Z,8.68
2018-04-06T08:41:01.949Z,9.90
2018-04-06T08:43:31.032Z,9.83
2018-04-06T08:45:59.307Z,8.97
2018-04-06T08:48:27.972Z,11.83
2018-04-06T08:50:56.451Z,7.40
2018-04-06T08:53:24.766Z,10.33
2018-04-06T08:55:53.982Z,7.13
2018-04-06T08:58:22.311Z,8.27
2018-04-06T09:00:50.956Z,9.93
2018-04-06T09:03:19.288Z,9.37
2018-04-06T09:05:48.806Z,6.80
2018-04-06T09:08:17.981Z,7.72
2018-04-06T09:10:46.262Z,8.73
2018-04-06T09:13:14.721Z,7.93
2018-04-06T09:15:43.019Z,8.27
2018-04-06T09:18:12.118Z,6.72
2018-04-06T09:20:40.410Z,6.27
2018-04-06T09:23:09.625Z,9.20
2018-04-06T09:25:38.031Z,6.70
2018-04-06T09:28:06.400Z,6.73
2018-04-06T09:30:34.885Z,5.43
2018-04-06T09:33:04.286Z,5.30
2018-04-06T09:35:32.651Z,6.80
2018-04-06T09:38:01.009Z,10.30
2018-04-06T09:40:30.100Z,5.77
2018-04-06T09:42:59.431Z,6.07
2018-04-06T09:45:27.748Z,6.32
2018-04-06T09:47:56.083Z,5.43
2018-04-06T09:50:24.412Z,7.43
2018-04-06T09:52:52.730Z,4.33
2018-04-06T09:55:22.422Z,7.17
2018-04-06T09:57:51.528Z,5.93
2018-04-06T10:00:25.397Z,6.53
2018-04-06T10:03:03.124Z,7.27
2018-04-06T10:05:32.162Z,7.47
2018-04-06T10:08:00.518Z,5.50
2018-04-06T10:10:28.852Z,7.83
2018-04-06T10:12:59.127Z,8.02
2018-04-06T10:15:27.815Z,7.40
2018-04-06T10:17:56.193Z,5.45
2018-04-06T10:20:24.522Z,6.33
2018-04-06T10:22:53.723Z,9.97
2018-04-06T10:25:22.996Z,4.93
2018-04-06T10:27:51.323Z,8.93
2018-04-06T10:30:19.721Z,7.90
2018-04-06T10:32:48.338Z,4.37
2018-04-06T10:35:16.748Z,5.53
2018-04-06T10:37:45.114Z,5.40
2018-04-06T10:40:14.358Z,4.80
2018-04-06T10:42:42.796Z,4.47
2018-04-06T10:45:13.248Z,4.60
2018-04-06T10:47:41.819Z,5.03
2018-04-06T10:52:45.949Z,3.92
2018-04-06T10:55:15.113Z,5.63
2018-04-06T10:57:43.608Z,5.37
2018-04-06T11:00:11.991Z,4.70
2018-04-06T11:02:41.187Z,5.77
2018-04-06T11:05:10.555Z,4.07
2018-04-06T11:07:38.866Z,5.00
2018-04-06T11:10:08.178Z,5.17
2018-04-06T11:12:37.272Z,5.47
2018-04-06T11:15:06.437Z,5.03
2018-04-06T11:17:34.768Z,4.07
2018-04-06T11:20:03.267Z,3.45
2018-04-06T11:22:31.613Z,4.12
2018-04-06T11:24:59.951Z,3.23
2018-04-06T11:27:29.910Z,6.18
2018-04-06T11:29:58.277Z,7.47
2018-04-06T11:32:26.708Z,4.27
2018-04-06T11:34:56.391Z,3.50
2018-04-06T11:37:24.815Z,3.50
2018-04-06T11:39:53.336Z,3.50
2018-04-06T11:42:21.952Z,4.50
2018-04-06T11:44:50.303Z,3.83
2018-04-06T11:47:18.723Z,4.57
2018-04-06T11:49:47.226Z,4.53
2018-04-06T11:52:15.798Z,4.57
2018-04-06T11:54:44.139Z,5.03
2018-04-06T11:57:12.629Z,5.13
2018-04-06T11:59:42.511Z,4.70
2018-04-06T12:02:10.953Z,4.50
2018-04-06T12:04:39.257Z,4.75
2018-04-06T12:07:08.486Z,4.03
2018-04-06T12:09:36.806Z,5.67
2018-04-06T12:12:05.107Z,4.68
2018-04-06T12:14:34.207Z,3.50
2018-04-06T12:17:02.917Z,3.05
2018-04-06T12:19:31.405Z,2.13
2018-04-06T12:21:59.734Z,7.10
2018-04-06T12:24:28.916Z,3.62
2018-04-06T12:26:57.283Z,2.23
2018-04-06T12:29:25.667Z,3.53
2018-04-06T12:31:54.111Z,4.97
2018-04-06T12:34:22.415Z,3.30
2018-04-06T12:36:51.149Z,3.47
2018-04-06T12:39:19.554Z,3.73
2018-04-06T12:41:48.031Z,3.73
2018-04-06T12:44:16.462Z,4.27
2018-04-06T12:46:44.998Z,3.57
2018-04-06T12:49:13.465Z,2.73
2018-04-06T12:51:41.764Z,3.23
2018-04-06T12:54:10.082Z,2.17
2018-04-06T12:56:39.173Z,2.87
2018-04-06T12:59:07.482Z,1.87
2018-04-06T13:01:35.810Z,2.00
2018-04-06T13:04:04.337Z,2.85
2018-04-06T13:06:32.811Z,2.10
2018-04-06T13:09:02.158Z,3.80
2018-04-06T13:11:30.612Z,1.80
2018-04-06T13:13:58.902Z,3.28
2018-04-06T13:16:27.349Z,11.00
2018-04-06T13:18:55.717Z,8.77
2018-04-06T13:21:24.822Z,2.67
2018-04-06T13:23:53.303Z,5.17
2018-04-06T13:26:21.774Z,1.86
2018-04-06T13:28:50.217Z,2.70
2018-04-06T13:31:19.553Z,3.53
2018-04-06T13:33:49.763Z,2.33
2018-04-06T13:36:18.267Z,4.67
2018-04-06T13:38:46.672Z,3.23
2018-04-06T13:41:15.212Z,2.87
2018-04-06T13:43:44.626Z,6.47
2018-04-06T13:46:13.756Z,9.10
2018-04-06T13:48:42.057Z,2.37
2018-04-06T13:51:10.490Z,2.92
2018-04-06T13:53:38.850Z,2.97
2018-04-06T13:56:07.914Z,1.70
2018-04-06T13:58:36.297Z,2.37
2018-04-06T14:01:05.105Z,1.27
2018-04-06T14:03:33.406Z,2.33
2018-04-06T14:06:02.973Z,2.70
2018-04-06T14:08:31.369Z,2.07
2018-04-06T14:11:00.656Z,5.37
2018-04-06T14:13:29.002Z,6.30
2018-04-06T14:15:57.535Z,40.73
2018-04-06T14:18:26.901Z,5.27
2018-04-06T14:20:55.266Z,2.77
2018-04-06T14:23:23.837Z,2.15
2018-04-06T14:25:52.356Z,4.97
2018-04-06T14:28:20.873Z,2.45
2018-04-06T14:30:49.457Z,2.53
2018-04-06T14:33:18.265Z,3.50
2018-04-06T14:35:46.605Z,4.93
2018-04-06T14:38:16.797Z,2.70
2018-04-06T14:40:45.278Z,3.03
2018-04-06T14:43:14.519Z,2.30
2018-04-06T14:45:43.340Z,4.07
2018-04-06T14:48:11.798Z,2.90
2018-04-06T14:50:40.284Z,3.83
2018-04-06T14:53:08.749Z,2.20
2018-04-06T14:55:37.222Z,4.37
2018-04-06T14:58:06.487Z,4.00
2018-04-06T15:00:34.992Z,2.10
2018-04-06T15:03:04.212Z,3.70
2018-04-06T15:05:32.540Z,4.78
2018-04-06T15:08:00.954Z,3.73
2018-04-06T15:10:29.587Z,3.17
2018-04-06T15:12:57.870Z,2.83
2018-04-06T15:15:26.192Z,3.20
2018-04-06T15:17:55.494Z,2.97
2018-04-06T15:20:24.699Z,3.40
2018-04-06T15:22:52.989Z,3.53
2018-04-06T15:25:21.566Z,3.87
2018-04-06T15:27:49.915Z,3.30
2018-04-06T15:30:19.157Z,7.53
2018-04-06T15:32:48.764Z,3.17
2018-04-06T15:35:17.102Z,2.27
2018-04-06T15:37:45.446Z,3.12
2018-04-06T15:40:13.764Z,2.57
2018-04-06T15:42:43.524Z,3.50
2018-04-06T15:45:11.924Z,3.70
2018-04-06T15:47:40.298Z,3.20
2018-04-06T15:50:08.628Z,27.37
2018-04-06T15:52:36.908Z,3.37
2018-04-06T15:55:05.403Z,2.53
2018-04-06T15:57:33.759Z,2.30
2018-04-06T16:00:02.210Z,3.30
2018-04-06T16:02:30.635Z,3.03
2018-04-06T16:04:59.064Z,2.73
2018-04-06T16:07:28.378Z,3.60
2018-04-06T16:09:57.465Z,2.73
2018-04-06T16:12:25.909Z,5.13
2018-04-06T16:14:54.357Z,2.50
2018-04-06T16:17:22.813Z,4.72
2018-04-06T16:19:52.150Z,5.60
2018-04-06T16:22:20.513Z,5.10
2018-04-06T16:24:49.048Z,7.60
2018-04-06T16:27:17.645Z,5.40
2018-04-06T16:29:46.071Z,6.22
2018-04-06T16:32:14.798Z,4.53
2018-04-06T16:34:45.304Z,4.27
2018-04-06T16:37:13.704Z,2.00
2018-04-06T16:39:42.112Z,3.13
2018-04-06T16:42:11.323Z,2.90
2018-04-06T16:44:39.798Z,2.33
2018-04-06T16:47:08.854Z,2.15
2018-04-06T16:49:37.177Z,4.40
2018-04-06T16:52:05.537Z,2.20
2018-04-06T16:54:34.591Z,13.73
2018-04-06T16:57:03.009Z,3.97
2018-04-06T16:59:32.246Z,2.83
2018-04-06T17:02:00.623Z,2.47
2018-04-06T17:04:29.056Z,2.97
2018-04-06T17:06:57.532Z,1.83
2018-04-06T17:09:26.294Z,2.62
2018-04-06T17:11:55.681Z,2.73
2018-04-06T17:14:24.488Z,4.00
2018-04-06T17:16:52.865Z,3.23
2018-04-06T17:19:23.793Z,4.70
2018-04-06T17:21:53.258Z,3.60
2018-04-06T17:24:22.425Z,3.97
2018-04-06T17:26:50.830Z,2.33
2018-04-06T17:29:19.969Z,3.37
2018-04-06T17:31:48.593Z,4.68
2018-04-06T17:34:16.961Z,5.57
2018-04-06T17:36:45.310Z,1.73
2018-04-06T17:39:13.675Z,1.98
2018-04-06T17:41:42.001Z,2.23
2018-04-06T17:44:10.554Z,3.60
2018-04-06T17:46:38.872Z,3.47
2018-04-06T17:49:09.178Z,2.67
2018-04-06T17:51:37.658Z,4.73
2018-04-06T17:54:05.995Z,4.10
2018-04-06T17:56:34.468Z,2.73
2018-04-06T17:59:02.906Z,5.07
2018-04-06T18:01:31.268Z,2.90
2018-04-06T18:03:59.608Z,2.17
2018-04-06T18:06:28.073Z,2.67
2018-04-06T18:08:56.482Z,2.95
2018-04-06T18:11:24.874Z,2.03
2018-04-06T18:13:53.199Z,1.70
2018-04-06T18:16:22.333Z,2.73
2018-04-06T18:18:50.863Z,1.73
2018-04-06T18:21:19.907Z,2.30
2018-04-06T18:23:49.859Z,4.22
2018-04-06T18:26:19.880Z,2.33
2018-04-06T18:28:48.894Z,2.30
2018-04-06T18:31:19.295Z,1.90
2018-04-06T18:33:47.795Z,2.23
2018-04-06T18:36:16.995Z,2.90
2018-04-06T18:38:46.204Z,2.10
2018-04-06T18:41:14.586Z,3.27
2018-04-06T18:43:43.021Z,4.43
2018-04-06T18:46:11.403Z,4.20
2018-04-06T18:48:40.007Z,3.60
2018-04-06T18:51:09.458Z,2.87
2018-04-06T18:53:38.484Z,2.60
2018-04-06T18:56:07.218Z,4.12
2018-04-06T18:58:36.771Z,3.70
2018-04-06T19:01:06.480Z,2.97
2018-04-06T19:03:35.156Z,2.17
2018-04-06T19:06:03.625Z,2.27
2018-04-06T19:08:31.950Z,4.50
2018-04-06T19:11:01.318Z,6.25
2018-04-06T19:13:29.718Z,1.95
2018-04-06T19:15:58.158Z,2.90
2018-04-06T19:18:27.386Z,2.37
2018-04-06T19:20:56.588Z,3.70
2018-04-06T19:23:25.131Z,5.73
2018-04-06T19:25:54.735Z,3.50
2018-04-06T19:28:23.929Z,3.73
2018-04-06T19:30:52.311Z,2.83
2018-04-06T19:33:20.754Z,4.60
2018-04-06T19:35:49.903Z,6.87
2018-04-06T19:38:18.478Z,3.93
2018-04-06T19:40:46.886Z,6.40
2018-04-06T19:43:15.408Z,4.12
2018-04-06T19:45:44.040Z,3.10
2018-04-06T19:48:12.532Z,7.00
2018-04-06T19:50:41.030Z,4.18
2018-04-06T19:53:09.773Z,2.97
2018-04-06T19:55:38.324Z,8.90
2018-04-06T19:58:08.574Z,3.47
2018-04-06T20:00:37.144Z,6.77
2018-04-06T20:03:05.581Z,3.63
2018-04-06T20:05:34.839Z,3.63
2018-04-06T20:08:03.221Z,3.50
2018-04-06T20:10:31.616Z,5.78
2018-04-06T20:13:00.161Z,2.90
2018-04-06T20:15:28.616Z,4.28
2018-04-06T20:17:57.885Z,2.63
2018-04-06T20:20:26.515Z,2.97
2018-04-06T20:22:55.237Z,3.35
2018-04-06T20:25:23.810Z,2.97
2018-04-06T20:27:52.287Z,4.67
2018-04-06T20:30:20.954Z,3.33
2018-04-06T20:32:49.344Z,5.37
2018-04-06T20:35:17.795Z,7.13
2018-04-06T20:37:47.056Z,2.97
2018-04-06T20:40:15.634Z,3.37
2018-04-06T20:42:43.985Z,4.47
2018-04-06T20:45:12.323Z,7.43
2018-04-06T20:47:41.443Z,7.07
2018-04-06T20:50:09.922Z,4.43
2018-04-06T20:52:38.286Z,4.97
2018-04-06T20:55:07.382Z,5.60
2018-04-06T20:57:36.527Z,3.73
2018-04-06T21:00:06.266Z,6.18
2018-04-06T21:02:34.663Z,3.70
2018-04-06T21:05:03.958Z,7.70
2018-04-06T21:07:32.283Z,5.80
2018-04-06T21:10:00.719Z,7.17
2018-04-06T21:12:29.867Z,4.83
2018-04-06T21:14:58.212Z,4.97
2018-04-06T21:17:27.327Z,6.47
2018-04-06T21:19:55.770Z,9.80
2018-04-06T21:22:24.132Z,8.85
2018-04-06T21:24:52.587Z,6.35
2018-04-06T21:27:21.060Z,4.25
2018-04-06T21:29:49.377Z,4.17
2018-04-06T21:32:19.530Z,4.57
2018-04-06T21:34:47.870Z,4.10
2018-04-06T21:37:16.382Z,6.70
2018-04-06T21:39:44.848Z,3.60
2018-04-06T21:42:14.211Z,6.03
2018-04-06T21:44:42.561Z,3.97
2018-04-06T21:47:10.864Z,4.73
2018-04-06T21:49:39.219Z,4.33
2018-04-06T21:52:07.623Z,3.33
2018-04-06T21:54:36.034Z,3.57
2018-04-06T21:57:05.293Z,4.00
2018-04-06T21:59:33.733Z,3.23
2018-04-06T22:02:02.135Z,4.57
2018-04-06T22:04:30.720Z,7.03
2018-04-06T22:06:59.195Z,3.73
2018-04-06T22:09:27.964Z,3.33
2018-04-06T22:11:57.151Z,5.40
2018-04-06T22:14:26.410Z,5.23
2018-04-06T22:16:54.713Z,6.87
2018-04-06T22:19:23.042Z,4.43
2018-04-06T22:21:51.410Z,3.87
2018-04-06T22:24:20.251Z,5.20
2018-04-06T22:26:48.610Z,3.57
2018-04-06T22:29:16.945Z,5.65
2018-04-06T22:31:45.276Z,5.07
2018-04-06T22:34:15.140Z,4.55
2018-04-06T22:36:43.517Z,4.33
2018-04-06T22:39:11.894Z,5.73
2018-04-06T22:41:40.216Z,5.90
2018-04-06T22:44:08.555Z,4.23
2018-04-06T22:46:36.989Z,4.43
2018-04-06T22:49:05.586Z,5.07
2018-04-06T22:51:34.746Z,5.87
2018-04-06T22:54:03.165Z,5.43
2018-04-06T22:56:32.294Z,4.07
2018-04-06T22:59:00.745Z,5.93
2018-04-06T23:01:29.097Z,4.90
2018-04-06T23:03:57.459Z,4.90
2018-04-06T23:06:25.890Z,7.80
2018-04-06T23:08:54.400Z,4.27
2018-04-06T23:11:22.786Z,6.17
2018-04-06T23:13:51.214Z,3.47
2018-04-06T23:16:20.314Z,3.33
2018-04-06T23:18:49.426Z,2.93
2018-04-06T23:21:17.792Z,4.73
2018-04-06T23:23:46.186Z,3.87
2018-04-06T23:26:14.487Z,2.90
2018-04-06T23:28:42.805Z,3.40
2018-04-06T23:31:11.146Z,8.23
2018-04-06T23:33:39.499Z,4.00
2018-04-06T23:36:09.141Z,5.63
2018-04-06T23:38:37.490Z,4.70
2018-04-06T23:41:05.850Z,4.27
2018-04-06T23:43:34.279Z,3.23
2018-04-06T23:46:02.709Z,6.17
2018-04-06T23:48:31.211Z,6.10
2018-04-06T23:50:59.631Z,5.03
2018-04-06T23:53:28.026Z,3.87
2018-04-06T23:55:57.146Z,3.03
2018-04-06T23:58:25.441Z,4.37
